AFL986 UIII-UNKL
Flight info
| Callsign | AFL986 |
|---|---|
| Flight time | 1h 29m |
| Altitude | 32000 |
| Route | BOGRA4D BOGRA A815 TUTEK A91 SUKOR W176 TISBU A311 LALOM LALOM2R |
| Aircraft | SU95/M-SDE3GILORVW/S |
Departure
| Time | 2026-05-09 11:39 |
|---|---|
| Airport | Irkutsk International Airport (UIII) |
Arrival
| Time | 2026-05-09 13:08 |
|---|---|
| Airport | Krasnoyarsk International Airport (UNKL) |
| Time | Latitude | Longitude | Altitude | Speed | Heading |
|---|---|---|---|---|---|
| 2026-05-09 11:12 | 52.27191 | 104.36443 | 1626 ft | 0 kts | 200° |
| 2026-05-09 11:27 | 52.27187 | 104.36440 | 1626 ft | 2 kts | 200° |
| 2026-05-09 11:27 | 52.27162 | 104.36426 | 1629 ft | 5 kts | 188° |
| 2026-05-09 11:27 | 52.27142 | 104.36463 | 1628 ft | 6 kts | 111° |
| 2026-05-09 11:28 | 52.27120 | 104.36554 | 1626 ft | 11 kts | 111° |
| 2026-05-09 11:28 | 52.27087 | 104.36695 | 1626 ft | 15 kts | 110° |
| 2026-05-09 11:28 | 52.27047 | 104.36869 | 1626 ft | 14 kts | 109° |
| 2026-05-09 11:28 | 52.27026 | 104.36968 | 1630 ft | 4 kts | 109° |
| 2026-05-09 11:29 | 52.27013 | 104.37025 | 1626 ft | 6 kts | 109° |
| 2026-05-09 11:29 | 52.26998 | 104.37097 | 1629 ft | 8 kts | 109° |
| 2026-05-09 11:29 | 52.26993 | 104.37204 | 1626 ft | 11 kts | 72° |
| 2026-05-09 11:29 | 52.26983 | 104.37345 | 1632 ft | 17 kts | 113° |
| 2026-05-09 11:30 | 52.26936 | 104.37528 | 1628 ft | 17 kts | 114° |
| 2026-05-09 11:30 | 52.26890 | 104.37701 | 1631 ft | 16 kts | 113° |
| 2026-05-09 11:30 | 52.26849 | 104.37857 | 1633 ft | 4 kts | 113° |
| 2026-05-09 11:31 | 52.26845 | 104.37872 | 1633 ft | 5 kts | 113° |
| 2026-05-09 11:31 | 52.26819 | 104.37963 | 1634 ft | 13 kts | 115° |
| 2026-05-09 11:31 | 52.26775 | 104.38131 | 1636 ft | 18 kts | 114° |
| 2026-05-09 11:31 | 52.26725 | 104.38318 | 1639 ft | 18 kts | 113° |
| 2026-05-09 11:32 | 52.26678 | 104.38496 | 1641 ft | 16 kts | 114° |
| 2026-05-09 11:32 | 52.26633 | 104.38658 | 1644 ft | 15 kts | 112° |
| 2026-05-09 11:32 | 52.26594 | 104.38810 | 1646 ft | 14 kts | 113° |
| 2026-05-09 11:32 | 52.26556 | 104.38953 | 1648 ft | 13 kts | 113° |
| 2026-05-09 11:33 | 52.26521 | 104.39085 | 1649 ft | 12 kts | 113° |
| 2026-05-09 11:33 | 52.26488 | 104.39210 | 1651 ft | 12 kts | 113° |
| 2026-05-09 11:33 | 52.26444 | 104.39374 | 1653 ft | 12 kts | 114° |
| 2026-05-09 11:34 | 52.26390 | 104.39573 | 1662 ft | 26 kts | 113° |
| 2026-05-09 11:34 | 52.26326 | 104.39817 | 1659 ft | 22 kts | 113° |
| 2026-05-09 11:34 | 52.26267 | 104.40044 | 1662 ft | 21 kts | 113° |
| 2026-05-09 11:34 | 52.26210 | 104.40253 | 1665 ft | 19 kts | 114° |
| 2026-05-09 11:35 | 52.26158 | 104.40447 | 1673 ft | 18 kts | 113° |
| 2026-05-09 11:35 | 52.26111 | 104.40629 | 1673 ft | 17 kts | 112° |
| 2026-05-09 11:35 | 52.26066 | 104.40797 | 1672 ft | 16 kts | 114° |
| 2026-05-09 11:35 | 52.26023 | 104.40954 | 1674 ft | 15 kts | 113° |
| 2026-05-09 11:36 | 52.25994 | 104.41103 | 1676 ft | 13 kts | 86° |
| 2026-05-09 11:36 | 52.26049 | 104.41198 | 1683 ft | 9 kts | 24° |
| 2026-05-09 11:36 | 52.26100 | 104.41236 | 1679 ft | 7 kts | 24° |
| 2026-05-09 11:36 | 52.26143 | 104.41267 | 1677 ft | 7 kts | 24° |
| 2026-05-09 11:37 | 52.26188 | 104.41294 | 1678 ft | 7 kts | 7° |
| 2026-05-09 11:37 | 52.26234 | 104.41261 | 1677 ft | 9 kts | 305° |
| 2026-05-09 11:37 | 52.26243 | 104.41234 | 1678 ft | 0 kts | 294° |
| 2026-05-09 11:38 | 52.26263 | 104.41163 | 1674 ft | 33 kts | 295° |
| 2026-05-09 11:38 | 52.26472 | 104.40387 | 1672 ft | 113 kts | 294° |
| 2026-05-09 11:38 | 52.26877 | 104.38865 | 1666 ft | 177 kts | 294° |
| 2026-05-09 11:39 | 52.27391 | 104.36912 | 2149 ft | 197 kts | 293° |
| 2026-05-09 11:39 | 52.27955 | 104.34724 | 2781 ft | 220 kts | 295° |
| 2026-05-09 11:39 | 52.28573 | 104.32313 | 3495 ft | 241 kts | 294° |
| 2026-05-09 11:40 | 52.30265 | 104.27329 | 5393 ft | 249 kts | 319° |
| 2026-05-09 11:40 | 52.31177 | 104.26282 | 6328 ft | 237 kts | 333° |
| 2026-05-09 11:40 | 52.32692 | 104.25354 | 7505 ft | 231 kts | 339° |
| 2026-05-09 11:40 | 52.34205 | 104.24504 | 8409 ft | 233 kts | 339° |
| 2026-05-09 11:41 | 52.35746 | 104.23636 | 9323 ft | 236 kts | 339° |
| 2026-05-09 11:41 | 52.37301 | 104.22761 | 10198 ft | 237 kts | 339° |
| 2026-05-09 11:41 | 52.38877 | 104.21874 | 10992 ft | 241 kts | 339° |
| 2026-05-09 11:41 | 52.40477 | 104.20975 | 11806 ft | 244 kts | 339° |
| 2026-05-09 11:42 | 52.42095 | 104.20066 | 12619 ft | 247 kts | 339° |
| 2026-05-09 11:42 | 52.43733 | 104.19145 | 13430 ft | 250 kts | 340° |
| 2026-05-09 11:42 | 52.45374 | 104.18222 | 14151 ft | 254 kts | 340° |
| 2026-05-09 11:42 | 52.47053 | 104.17278 | 14852 ft | 257 kts | 340° |
| 2026-05-09 11:43 | 52.48776 | 104.16307 | 15320 ft | 272 kts | 340° |
| 2026-05-09 11:43 | 52.50640 | 104.15254 | 15572 ft | 291 kts | 340° |
| 2026-05-09 11:43 | 52.52569 | 104.14166 | 16288 ft | 293 kts | 340° |
| 2026-05-09 11:43 | 52.54494 | 104.13080 | 17157 ft | 292 kts | 340° |
| 2026-05-09 11:44 | 52.56414 | 104.11997 | 18014 ft | 291 kts | 340° |
| 2026-05-09 11:44 | 52.58327 | 104.10915 | 18784 ft | 289 kts | 340° |
| 2026-05-09 11:44 | 52.60219 | 104.09844 | 19514 ft | 289 kts | 340° |
| 2026-05-09 11:44 | 52.62164 | 104.08740 | 19821 ft | 304 kts | 340° |
| 2026-05-09 11:45 | 52.64242 | 104.07558 | 19895 ft | 327 kts | 340° |
| 2026-05-09 11:45 | 52.66462 | 104.06294 | 19891 ft | 348 kts | 340° |
| 2026-05-09 11:45 | 52.68777 | 104.04978 | 19888 ft | 352 kts | 340° |
| 2026-05-09 11:45 | 52.71088 | 104.03664 | 19893 ft | 351 kts | 340° |
| 2026-05-09 11:46 | 52.73359 | 104.02372 | 19894 ft | 351 kts | 340° |
| 2026-05-09 11:46 | 52.75682 | 104.01047 | 19891 ft | 351 kts | 340° |
| 2026-05-09 11:46 | 52.77976 | 103.99736 | 19891 ft | 351 kts | 340° |
| 2026-05-09 11:46 | 52.80294 | 103.98411 | 19894 ft | 351 kts | 340° |
| 2026-05-09 11:47 | 52.82605 | 103.97087 | 19894 ft | 351 kts | 340° |
| 2026-05-09 11:47 | 52.84909 | 103.95766 | 19896 ft | 350 kts | 340° |
| 2026-05-09 11:47 | 52.87215 | 103.94442 | 19893 ft | 350 kts | 340° |
| 2026-05-09 11:47 | 52.89520 | 103.93117 | 19899 ft | 350 kts | 340° |
| 2026-05-09 11:48 | 52.91819 | 103.91794 | 19900 ft | 350 kts | 340° |
| 2026-05-09 11:48 | 52.94114 | 103.90473 | 19899 ft | 349 kts | 340° |
| 2026-05-09 11:48 | 52.96421 | 103.89143 | 19900 ft | 350 kts | 340° |
| 2026-05-09 11:48 | 52.98719 | 103.87817 | 19901 ft | 350 kts | 339° |
| 2026-05-09 11:49 | 53.01017 | 103.86489 | 19901 ft | 349 kts | 339° |
| 2026-05-09 11:49 | 53.03315 | 103.85161 | 19901 ft | 350 kts | 339° |
| 2026-05-09 11:49 | 53.05586 | 103.83845 | 19900 ft | 349 kts | 339° |
| 2026-05-09 11:49 | 53.07879 | 103.82515 | 19900 ft | 349 kts | 339° |
| 2026-05-09 11:50 | 53.10177 | 103.81181 | 19901 ft | 349 kts | 339° |
| 2026-05-09 11:50 | 53.12472 | 103.79847 | 19900 ft | 349 kts | 339° |
| 2026-05-09 11:50 | 53.14766 | 103.78496 | 19900 ft | 349 kts | 337° |
| 2026-05-09 11:50 | 53.16978 | 103.76831 | 20143 ft | 347 kts | 333° |
| 2026-05-09 11:51 | 53.19121 | 103.75145 | 21229 ft | 332 kts | 334° |
| 2026-05-09 11:51 | 53.21151 | 103.73571 | 22657 ft | 311 kts | 334° |
| 2026-05-09 11:51 | 53.23050 | 103.72101 | 23930 ft | 292 kts | 333° |
| 2026-05-09 11:51 | 53.24874 | 103.70680 | 24598 ft | 291 kts | 333° |
| 2026-05-09 11:52 | 53.26697 | 103.69252 | 24997 ft | 294 kts | 333° |
| 2026-05-09 11:52 | 53.28562 | 103.67790 | 25432 ft | 297 kts | 333° |
| 2026-05-09 11:52 | 53.30440 | 103.66314 | 25866 ft | 299 kts | 333° |
| 2026-05-09 11:52 | 53.32330 | 103.64829 | 26322 ft | 301 kts | 333° |
| 2026-05-09 11:53 | 53.34232 | 103.63333 | 26716 ft | 304 kts | 333° |
| 2026-05-09 11:53 | 53.36153 | 103.61821 | 27109 ft | 305 kts | 333° |
| 2026-05-09 11:53 | 53.38084 | 103.60300 | 27525 ft | 308 kts | 333° |
| 2026-05-09 11:53 | 53.40007 | 103.58784 | 27925 ft | 310 kts | 333° |
| 2026-05-09 11:54 | 53.41968 | 103.57237 | 28343 ft | 312 kts | 333° |
| 2026-05-09 11:54 | 53.43940 | 103.55679 | 28696 ft | 315 kts | 333° |
| 2026-05-09 11:54 | 53.45928 | 103.54106 | 29083 ft | 316 kts | 333° |
| 2026-05-09 11:54 | 53.47909 | 103.52493 | 29466 ft | 318 kts | 329° |
| 2026-05-09 11:55 | 53.49760 | 103.50424 | 29781 ft | 320 kts | 320° |
| 2026-05-09 11:56 | 53.56090 | 103.34793 | 31374 ft | 331 kts | 302° |
| 2026-05-09 11:56 | 53.57234 | 103.31412 | 31639 ft | 334 kts | 302° |
| 2026-05-09 11:56 | 53.58385 | 103.28002 | 31875 ft | 338 kts | 301° |
| 2026-05-09 11:57 | 53.59564 | 103.24504 | 31909 ft | 347 kts | 301° |
| 2026-05-09 11:57 | 53.60773 | 103.20907 | 31908 ft | 358 kts | 301° |
| 2026-05-09 11:57 | 53.62013 | 103.17209 | 31907 ft | 368 kts | 301° |
| 2026-05-09 11:57 | 53.63277 | 103.13435 | 31911 ft | 379 kts | 301° |
| 2026-05-09 11:58 | 53.64589 | 103.09509 | 31910 ft | 389 kts | 301° |
| 2026-05-09 11:58 | 53.65934 | 103.05478 | 31907 ft | 400 kts | 301° |
| 2026-05-09 11:58 | 53.67306 | 103.01358 | 31907 ft | 404 kts | 301° |
| 2026-05-09 11:59 | 53.70042 | 102.93115 | 31908 ft | 402 kts | 301° |
| 2026-05-09 11:59 | 53.72353 | 102.86143 | 31908 ft | 417 kts | 301° |
| 2026-05-09 12:00 | 53.75286 | 102.77259 | 31912 ft | 422 kts | 300° |
| 2026-05-09 12:00 | 53.78139 | 102.68583 | 31909 ft | 421 kts | 300° |
| 2026-05-09 12:01 | 53.80985 | 102.59899 | 31915 ft | 421 kts | 300° |
| 2026-05-09 12:01 | 53.83816 | 102.51230 | 31911 ft | 420 kts | 300° |
| 2026-05-09 12:02 | 53.86620 | 102.42611 | 31917 ft | 420 kts | 300° |
| 2026-05-09 12:02 | 53.89448 | 102.33890 | 31917 ft | 420 kts | 300° |
| 2026-05-09 12:03 | 53.92235 | 102.25264 | 31915 ft | 420 kts | 300° |
| 2026-05-09 12:03 | 53.95033 | 102.16573 | 31917 ft | 419 kts | 300° |
| 2026-05-09 12:04 | 53.97822 | 102.07881 | 31915 ft | 419 kts | 300° |
| 2026-05-09 12:04 | 54.00601 | 101.99183 | 31915 ft | 418 kts | 300° |
| 2026-05-09 12:05 | 54.03305 | 101.90700 | 31917 ft | 418 kts | 300° |
| 2026-05-09 12:05 | 54.06075 | 101.82014 | 31920 ft | 418 kts | 300° |
| 2026-05-09 12:06 | 54.08843 | 101.73323 | 31923 ft | 417 kts | 300° |
| 2026-05-09 12:06 | 54.11600 | 101.64625 | 31924 ft | 416 kts | 300° |
| 2026-05-09 12:07 | 54.14324 | 101.55992 | 31923 ft | 416 kts | 299° |
| 2026-05-09 12:07 | 54.17066 | 101.47271 | 31923 ft | 416 kts | 299° |
| 2026-05-09 12:08 | 54.19765 | 101.38659 | 31921 ft | 415 kts | 299° |
| 2026-05-09 12:08 | 54.22485 | 101.29945 | 31923 ft | 415 kts | 299° |
| 2026-05-09 12:09 | 54.25194 | 101.21235 | 31922 ft | 415 kts | 299° |
| 2026-05-09 12:09 | 54.27898 | 101.12508 | 31917 ft | 414 kts | 299° |
| 2026-05-09 12:10 | 54.33257 | 100.95121 | 31920 ft | 414 kts | 299° |
| 2026-05-09 12:11 | 54.35920 | 100.86436 | 31921 ft | 414 kts | 298° |
| 2026-05-09 12:11 | 54.38577 | 100.77735 | 31920 ft | 413 kts | 298° |
| 2026-05-09 12:12 | 54.41240 | 100.68984 | 31920 ft | 413 kts | 298° |
| 2026-05-09 12:12 | 54.43895 | 100.60229 | 31920 ft | 413 kts | 298° |
| 2026-05-09 12:13 | 54.46493 | 100.51631 | 31918 ft | 413 kts | 298° |
| 2026-05-09 12:13 | 54.49128 | 100.42875 | 31919 ft | 413 kts | 298° |
| 2026-05-09 12:14 | 54.51764 | 100.34083 | 31920 ft | 412 kts | 298° |
| 2026-05-09 12:14 | 54.54369 | 100.25366 | 31922 ft | 413 kts | 298° |
| 2026-05-09 12:15 | 54.56970 | 100.16627 | 31923 ft | 412 kts | 298° |
| 2026-05-09 12:15 | 54.59583 | 100.07817 | 31923 ft | 412 kts | 298° |
| 2026-05-09 12:16 | 54.62188 | 99.99002 | 31922 ft | 412 kts | 298° |
| 2026-05-09 12:16 | 54.64782 | 99.90190 | 31926 ft | 412 kts | 298° |
| 2026-05-09 12:17 | 54.67380 | 99.81328 | 31924 ft | 412 kts | 297° |
| 2026-05-09 12:17 | 54.69966 | 99.72479 | 31925 ft | 412 kts | 297° |
| 2026-05-09 12:18 | 54.72543 | 99.63625 | 31926 ft | 412 kts | 297° |
| 2026-05-09 12:18 | 54.75103 | 99.54795 | 31922 ft | 413 kts | 297° |
| 2026-05-09 12:19 | 54.77675 | 99.45891 | 31924 ft | 413 kts | 297° |
| 2026-05-09 12:19 | 54.80236 | 99.36992 | 31921 ft | 413 kts | 297° |
| 2026-05-09 12:20 | 54.82772 | 99.28146 | 31922 ft | 413 kts | 297° |
| 2026-05-09 12:20 | 54.85324 | 99.19208 | 31918 ft | 413 kts | 297° |
| 2026-05-09 12:21 | 54.87858 | 99.10311 | 31917 ft | 413 kts | 297° |
| 2026-05-09 12:21 | 54.90067 | 99.01279 | 31918 ft | 414 kts | 291° |
| 2026-05-09 12:22 | 54.92087 | 98.91898 | 31921 ft | 414 kts | 292° |
| 2026-05-09 12:22 | 54.94120 | 98.82524 | 31920 ft | 414 kts | 292° |
| 2026-05-09 12:23 | 54.96133 | 98.73139 | 31921 ft | 414 kts | 291° |
| 2026-05-09 12:23 | 54.98134 | 98.63741 | 31925 ft | 414 kts | 291° |
| 2026-05-09 12:24 | 55.00115 | 98.54396 | 31923 ft | 414 kts | 291° |
| 2026-05-09 12:24 | 55.02104 | 98.44970 | 31928 ft | 414 kts | 291° |
| 2026-05-09 12:25 | 55.04089 | 98.35524 | 31929 ft | 415 kts | 291° |
| 2026-05-09 12:25 | 55.05732 | 98.27666 | 31927 ft | 415 kts | 291° |
| 2026-05-09 12:26 | 55.08026 | 98.16646 | 31926 ft | 415 kts | 291° |
| 2026-05-09 12:26 | 55.09672 | 98.08700 | 31925 ft | 415 kts | 291° |
| 2026-05-09 12:27 | 55.11616 | 97.99278 | 31923 ft | 415 kts | 290° |
| 2026-05-09 12:27 | 55.13564 | 97.89788 | 31930 ft | 416 kts | 290° |
| 2026-05-09 12:28 | 55.15494 | 97.80344 | 31926 ft | 415 kts | 290° |
| 2026-05-09 12:28 | 55.17433 | 97.70810 | 31923 ft | 416 kts | 290° |
| 2026-05-09 12:29 | 55.19364 | 97.61268 | 31925 ft | 416 kts | 290° |
| 2026-05-09 12:29 | 55.21290 | 97.51705 | 31926 ft | 416 kts | 290° |
| 2026-05-09 12:30 | 55.23214 | 97.42107 | 31924 ft | 417 kts | 290° |
| 2026-05-09 12:30 | 55.26067 | 97.27792 | 31924 ft | 417 kts | 290° |
| 2026-05-09 12:31 | 55.28977 | 97.13371 | 31923 ft | 417 kts | 290° |
| 2026-05-09 12:32 | 55.30918 | 97.03742 | 31925 ft | 417 kts | 290° |
| 2026-05-09 12:32 | 55.32818 | 96.94252 | 31928 ft | 418 kts | 290° |
| 2026-05-09 12:33 | 55.34692 | 96.84841 | 31918 ft | 418 kts | 290° |
| 2026-05-09 12:33 | 55.36605 | 96.75188 | 31921 ft | 418 kts | 290° |
| 2026-05-09 12:34 | 55.38508 | 96.65537 | 31919 ft | 419 kts | 289° |
| 2026-05-09 12:34 | 55.40409 | 96.55848 | 31915 ft | 419 kts | 289° |
| 2026-05-09 12:35 | 55.42306 | 96.46133 | 31918 ft | 420 kts | 289° |
| 2026-05-09 12:35 | 55.44194 | 96.36412 | 31916 ft | 420 kts | 289° |
| 2026-05-09 12:36 | 55.46075 | 96.26682 | 31910 ft | 421 kts | 289° |
| 2026-05-09 12:36 | 55.47947 | 96.16945 | 31919 ft | 421 kts | 289° |
| 2026-05-09 12:37 | 55.49823 | 96.07139 | 31913 ft | 422 kts | 289° |
| 2026-05-09 12:37 | 55.51691 | 95.97327 | 32330 ft | 417 kts | 289° |
| 2026-05-09 12:37 | 55.52596 | 95.92556 | 33271 ft | 404 kts | 289° |
| 2026-05-09 12:38 | 55.53461 | 95.87988 | 33755 ft | 399 kts | 289° |
| 2026-05-09 12:38 | 55.54358 | 95.83243 | 33902 ft | 398 kts | 289° |
| 2026-05-09 12:38 | 55.55241 | 95.78564 | 33906 ft | 405 kts | 289° |
| 2026-05-09 12:38 | 55.56127 | 95.73853 | 33758 ft | 404 kts | 289° |
| 2026-05-09 12:39 | 55.56929 | 95.69575 | 33176 ft | 405 kts | 289° |
| 2026-05-09 12:39 | 55.57748 | 95.65201 | 32307 ft | 407 kts | 289° |
| 2026-05-09 12:39 | 55.58654 | 95.60350 | 31296 ft | 414 kts | 288° |
| 2026-05-09 12:39 | 55.59559 | 95.55490 | 30462 ft | 418 kts | 288° |
| 2026-05-09 12:40 | 55.60460 | 95.50638 | 30067 ft | 411 kts | 288° |
| 2026-05-09 12:40 | 55.61336 | 95.45905 | 29912 ft | 397 kts | 288° |
| 2026-05-09 12:40 | 55.62180 | 95.41340 | 29901 ft | 386 kts | 288° |
| 2026-05-09 12:41 | 55.63863 | 95.32194 | 29900 ft | 395 kts | 288° |
| 2026-05-09 12:41 | 55.65559 | 95.22935 | 29901 ft | 395 kts | 288° |
| 2026-05-09 12:42 | 55.67247 | 95.13673 | 29904 ft | 395 kts | 288° |
| 2026-05-09 12:42 | 55.68931 | 95.04390 | 29897 ft | 395 kts | 288° |
| 2026-05-09 12:43 | 55.70607 | 94.95099 | 29900 ft | 395 kts | 288° |
| 2026-05-09 12:43 | 55.72279 | 94.85787 | 29898 ft | 400 kts | 287° |
| 2026-05-09 12:43 | 55.73133 | 94.81010 | 29897 ft | 412 kts | 287° |
| 2026-05-09 12:44 | 55.74000 | 94.76156 | 29893 ft | 424 kts | 287° |
| 2026-05-09 12:44 | 55.75806 | 94.65991 | 29890 ft | 433 kts | 287° |
| 2026-05-09 12:45 | 55.77604 | 94.55815 | 29891 ft | 433 kts | 287° |
| 2026-05-09 12:45 | 55.79394 | 94.45625 | 29890 ft | 433 kts | 287° |
| 2026-05-09 12:46 | 55.81171 | 94.35451 | 29894 ft | 433 kts | 287° |
| 2026-05-09 12:46 | 55.82942 | 94.25417 | 29632 ft | 423 kts | 288° |
| 2026-05-09 12:46 | 55.83846 | 94.20499 | 29344 ft | 412 kts | 288° |
| 2026-05-09 12:47 | 55.84714 | 94.15781 | 29066 ft | 401 kts | 288° |
| 2026-05-09 12:47 | 55.85569 | 94.11117 | 28789 ft | 391 kts | 287° |
| 2026-05-09 12:47 | 55.86397 | 94.06568 | 28513 ft | 385 kts | 287° |
| 2026-05-09 12:47 | 55.87225 | 94.01992 | 28245 ft | 390 kts | 287° |
| 2026-05-09 12:48 | 55.88054 | 93.97395 | 27974 ft | 389 kts | 287° |
| 2026-05-09 12:48 | 55.88877 | 93.92819 | 27709 ft | 387 kts | 287° |
| 2026-05-09 12:48 | 55.89695 | 93.88260 | 27447 ft | 386 kts | 287° |
| 2026-05-09 12:48 | 55.90512 | 93.83692 | 27183 ft | 385 kts | 287° |
| 2026-05-09 12:49 | 55.91348 | 93.79156 | 26925 ft | 385 kts | 288° |
| 2026-05-09 12:49 | 55.92261 | 93.74670 | 26671 ft | 384 kts | 289° |
| 2026-05-09 12:49 | 55.93195 | 93.70215 | 26413 ft | 383 kts | 289° |
| 2026-05-09 12:49 | 55.94112 | 93.65826 | 26159 ft | 382 kts | 289° |
| 2026-05-09 12:50 | 55.95028 | 93.61390 | 25918 ft | 381 kts | 289° |
| 2026-05-09 12:50 | 55.95936 | 93.56943 | 25671 ft | 380 kts | 289° |
| 2026-05-09 12:50 | 55.96838 | 93.52500 | 25195 ft | 381 kts | 288° |
| 2026-05-09 12:50 | 55.97736 | 93.48052 | 24605 ft | 382 kts | 288° |
| 2026-05-09 12:51 | 55.98640 | 93.43564 | 24013 ft | 382 kts | 288° |
| 2026-05-09 12:51 | 55.99538 | 93.39099 | 23403 ft | 381 kts | 288° |
| 2026-05-09 12:51 | 56.00430 | 93.34649 | 22757 ft | 379 kts | 288° |
| 2026-05-09 12:51 | 56.01330 | 93.30246 | 22173 ft | 375 kts | 290° |
| 2026-05-09 12:52 | 56.02439 | 93.26047 | 21585 ft | 373 kts | 297° |
| 2026-05-09 12:52 | 56.03800 | 93.22109 | 20992 ft | 372 kts | 303° |
| 2026-05-09 12:52 | 56.05352 | 93.18405 | 20402 ft | 370 kts | 305° |
| 2026-05-09 12:52 | 56.06878 | 93.14790 | 19825 ft | 368 kts | 304° |
| 2026-05-09 12:53 | 56.08416 | 93.11124 | 19213 ft | 366 kts | 304° |
| 2026-05-09 12:53 | 56.09938 | 93.07486 | 18626 ft | 365 kts | 305° |
| 2026-05-09 12:53 | 56.11454 | 93.03861 | 18002 ft | 361 kts | 305° |
| 2026-05-09 12:53 | 56.12914 | 93.00370 | 17402 ft | 355 kts | 304° |
| 2026-05-09 12:54 | 56.14383 | 92.96853 | 16828 ft | 349 kts | 304° |
| 2026-05-09 12:54 | 56.15814 | 92.93425 | 16506 ft | 335 kts | 304° |
| 2026-05-09 12:54 | 56.17177 | 92.90158 | 16348 ft | 319 kts | 304° |
| 2026-05-09 12:54 | 56.18479 | 92.87031 | 16059 ft | 308 kts | 304° |
| 2026-05-09 12:55 | 56.19736 | 92.84001 | 15506 ft | 306 kts | 304° |
| 2026-05-09 12:55 | 56.21009 | 92.80927 | 14904 ft | 306 kts | 304° |
| 2026-05-09 12:55 | 56.22269 | 92.77884 | 14569 ft | 297 kts | 304° |
| 2026-05-09 12:55 | 56.23472 | 92.74982 | 14433 ft | 282 kts | 304° |
| 2026-05-09 12:56 | 56.24628 | 92.72186 | 14089 ft | 276 kts | 304° |
| 2026-05-09 12:56 | 56.25759 | 92.69409 | 13659 ft | 273 kts | 301° |
| 2026-05-09 12:56 | 56.26680 | 92.66440 | 13158 ft | 270 kts | 292° |
| 2026-05-09 12:56 | 56.27404 | 92.63342 | 12671 ft | 268 kts | 291° |
| 2026-05-09 12:57 | 56.28130 | 92.60274 | 12203 ft | 266 kts | 291° |
| 2026-05-09 12:57 | 56.28858 | 92.57221 | 11732 ft | 264 kts | 292° |
| 2026-05-09 12:57 | 56.29581 | 92.54192 | 11281 ft | 263 kts | 292° |
| 2026-05-09 12:57 | 56.30300 | 92.51175 | 10833 ft | 261 kts | 292° |
| 2026-05-09 12:58 | 56.31014 | 92.48170 | 10379 ft | 260 kts | 292° |
| 2026-05-09 12:58 | 56.31723 | 92.45180 | 9936 ft | 259 kts | 292° |
| 2026-05-09 12:58 | 56.32426 | 92.42212 | 9585 ft | 253 kts | 292° |
| 2026-05-09 12:58 | 56.33091 | 92.39404 | 9389 ft | 242 kts | 292° |
| 2026-05-09 12:59 | 56.33744 | 92.36638 | 8980 ft | 239 kts | 291° |
| 2026-05-09 12:59 | 56.34396 | 92.33872 | 8537 ft | 238 kts | 291° |
| 2026-05-09 12:59 | 56.35043 | 92.31123 | 8110 ft | 238 kts | 291° |
| 2026-05-09 12:59 | 56.35678 | 92.28421 | 7911 ft | 228 kts | 291° |
| 2026-05-09 13:00 | 56.36277 | 92.25877 | 7782 ft | 212 kts | 291° |
| 2026-05-09 13:00 | 56.36818 | 92.23521 | 7655 ft | 195 kts | 285° |
| 2026-05-09 13:00 | 56.36917 | 92.21265 | 7572 ft | 173 kts | 261° |
| 2026-05-09 13:00 | 56.36489 | 92.19330 | 7278 ft | 165 kts | 237° |
| 2026-05-09 13:01 | 56.35630 | 92.17945 | 6831 ft | 170 kts | 211° |
| 2026-05-09 13:01 | 56.34532 | 92.17115 | 6420 ft | 171 kts | 206° |
| 2026-05-09 13:01 | 56.33444 | 92.16311 | 6038 ft | 169 kts | 206° |
| 2026-05-09 13:01 | 56.32377 | 92.15506 | 5632 ft | 168 kts | 206° |
| 2026-05-09 13:02 | 56.31301 | 92.14689 | 5233 ft | 167 kts | 206° |
| 2026-05-09 13:02 | 56.30234 | 92.13877 | 4864 ft | 166 kts | 205° |
| 2026-05-09 13:02 | 56.29176 | 92.13074 | 4501 ft | 164 kts | 205° |
| 2026-05-09 13:02 | 56.28086 | 92.12269 | 3882 ft | 176 kts | 199° |
| 2026-05-09 13:03 | 56.26864 | 92.12380 | 3307 ft | 179 kts | 155° |
| 2026-05-09 13:03 | 56.25910 | 92.13875 | 3191 ft | 187 kts | 128° |
| 2026-05-09 13:03 | 56.25266 | 92.15915 | 3186 ft | 189 kts | 116° |
| 2026-05-09 13:03 | 56.24755 | 92.18084 | 3170 ft | 188 kts | 114° |
| 2026-05-09 13:04 | 56.24228 | 92.20319 | 3119 ft | 198 kts | 114° |
| 2026-05-09 13:04 | 56.23703 | 92.22509 | 3062 ft | 185 kts | 114° |
| 2026-05-09 13:04 | 56.23218 | 92.24530 | 2897 ft | 168 kts | 114° |
| 2026-05-09 13:04 | 56.22765 | 92.26415 | 2524 ft | 162 kts | 114° |
| 2026-05-09 13:05 | 56.22334 | 92.28213 | 2343 ft | 151 kts | 114° |
| 2026-05-09 13:05 | 56.21913 | 92.29968 | 2326 ft | 154 kts | 114° |
| 2026-05-09 13:05 | 56.21491 | 92.31736 | 2326 ft | 154 kts | 113° |
| 2026-05-09 13:05 | 56.21070 | 92.33492 | 2334 ft | 153 kts | 113° |
| 2026-05-09 13:06 | 56.20650 | 92.35251 | 2270 ft | 152 kts | 113° |
| 2026-05-09 13:06 | 56.20242 | 92.36960 | 2050 ft | 145 kts | 114° |
| 2026-05-09 13:06 | 56.19844 | 92.38626 | 1860 ft | 146 kts | 113° |
| 2026-05-09 13:06 | 56.19447 | 92.40291 | 1702 ft | 146 kts | 112° |
| 2026-05-09 13:07 | 56.19047 | 92.41968 | 1509 ft | 146 kts | 113° |
| 2026-05-09 13:07 | 56.18642 | 92.43649 | 1318 ft | 146 kts | 113° |
| 2026-05-09 13:07 | 56.18245 | 92.45325 | 1157 ft | 147 kts | 113° |
| 2026-05-09 13:07 | 56.17847 | 92.46998 | 987 ft | 144 kts | 114° |
| 2026-05-09 13:08 | 56.17465 | 92.48610 | 951 ft | 131 kts | 114° |
| 2026-05-09 13:08 | 56.17150 | 92.49931 | 949 ft | 98 kts | 114° |
| 2026-05-09 13:08 | 56.16928 | 92.50836 | 954 ft | 43 kts | 113° |
| 2026-05-09 13:08 | 56.16817 | 92.51296 | 951 ft | 39 kts | 113° |
| 2026-05-09 13:09 | 56.16718 | 92.51735 | 952 ft | 37 kts | 112° |
| 2026-05-09 13:09 | 56.16685 | 92.51950 | 952 ft | 13 kts | 72° |
| 2026-05-09 13:09 | 56.16688 | 92.51971 | 952 ft | 5 kts | 72° |
| 2026-05-09 13:09 | 56.16731 | 92.52031 | 953 ft | 13 kts | 19° |
| 2026-05-09 13:10 | 56.16750 | 92.52036 | 953 ft | 7 kts | 355° |
| 2026-05-09 13:10 | 56.16817 | 92.52020 | 954 ft | 0 kts | 347° |
| 2026-05-09 13:11 | 56.16819 | 92.52019 | 954 ft | 0 kts | 347° |
| 2026-05-09 13:11 | 56.16821 | 92.52018 | 954 ft | 2 kts | 348° |
| 2026-05-09 13:11 | 56.16890 | 92.51962 | 953 ft | 16 kts | 306° |
| 2026-05-09 13:12 | 56.16926 | 92.51833 | 953 ft | 10 kts | 294° |
| 2026-05-09 13:12 | 56.16955 | 92.51707 | 952 ft | 11 kts | 293° |
| 2026-05-09 13:12 | 56.16989 | 92.51569 | 954 ft | 13 kts | 293° |
| 2026-05-09 13:12 | 56.17025 | 92.51417 | 954 ft | 14 kts | 293° |
| 2026-05-09 13:13 | 56.17064 | 92.51252 | 954 ft | 15 kts | 293° |
| 2026-05-09 13:13 | 56.17106 | 92.51076 | 954 ft | 16 kts | 294° |
| 2026-05-09 13:13 | 56.17150 | 92.50892 | 954 ft | 17 kts | 293° |
| 2026-05-09 13:13 | 56.17197 | 92.50695 | 954 ft | 18 kts | 292° |
| 2026-05-09 13:14 | 56.17244 | 92.50490 | 953 ft | 18 kts | 292° |
| 2026-05-09 13:14 | 56.17296 | 92.50276 | 954 ft | 19 kts | 293° |
| 2026-05-09 13:16 | 56.17671 | 92.48701 | 954 ft | 17 kts | 292° |
| 2026-05-09 13:16 | 56.17713 | 92.48519 | 954 ft | 13 kts | 292° |
| 2026-05-09 13:16 | 56.17746 | 92.48413 | 954 ft | 6 kts | 335° |
| 2026-05-09 13:16 | 56.17790 | 92.48426 | 954 ft | 7 kts | 22° |
| 2026-05-09 13:17 | 56.17842 | 92.48464 | 954 ft | 9 kts | 22° |
| 2026-05-09 13:17 | 56.17848 | 92.48468 | 954 ft | 0 kts | 22° |
| 2026-05-09 13:17 | 56.17866 | 92.48481 | 954 ft | 0 kts | 22° |
| 2026-05-09 13:18 | 56.17879 | 92.48491 | 954 ft | 4 kts | 22° |
| 2026-05-09 13:18 | 56.17894 | 92.48503 | 954 ft | 0 kts | 24° |
| 2026-05-09 13:18 | 56.17903 | 92.48509 | 954 ft | 0 kts | 22° |
| 2026-05-09 13:18 | 56.17915 | 92.48518 | 954 ft | 3 kts | 23° |
| 2026-05-09 13:19 | 56.17932 | 92.48531 | 954 ft | 0 kts | 24° |
| 2026-05-09 13:19 | 56.17940 | 92.48538 | 954 ft | 2 kts | 23° |
| 2026-05-09 13:19 | 56.17944 | 92.48541 | 954 ft | 1 kts | 23° |
| 2026-05-09 13:19 | 56.17947 | 92.48543 | 954 ft | 0 kts | 23° |